Time;durP1;ratioP1;P1;durP2;ratioP2;P2;SDS_P1;SDS_P2;PMS_P1;PMS_P2;Temp;Humidity;BMP_temperature;BMP_pressure;BME280_temperature;BME280_humidity;BME280_pressure;Samples;Min_cycle;Max_cycle;Signal;HPM_P1;HPM_P2
2024/03/10 00:01:39;;;;;;;0.20;0.20;;;;;;;8.10;72.86;101516.84;4917753;29;20509;-86
2024/03/10 00:04:05;;;;;;;0.20;0.20;;;;;;;7.84;72.83;101483.97;4917024;29;20028;-85
2024/03/10 00:06:30;;;;;;;0.20;0.20;;;;;;;8.01;73.22;101511.03;4932776;29;20035;-85
2024/03/10 00:08:56;;;;;;;0.20;0.20;;;;;;;7.83;73.73;101493.44;4932970;29;20039;-85
2024/03/10 00:11:21;;;;;;;0.20;0.20;;;;;;;7.87;73.01;101489.91;4932770;29;20043;-85
2024/03/10 00:13:48;;;;;;;0.20;0.20;;;;;;;7.94;73.58;101508.63;4932450;29;20031;-85
2024/03/10 00:16:14;;;;;;;0.20;0.20;;;;;;;7.87;73.86;101513.09;4917211;29;20486;-85
2024/03/10 00:18:39;;;;;;;0.20;0.20;;;;;;;7.75;74.14;101516.78;4932559;29;20039;-85
2024/03/10 00:21:05;;;;;;;0.20;0.20;;;;;;;7.66;74.41;101495.53;4917110;29;20039;-85
2024/03/10 00:23:31;;;;;;;0.20;0.20;;;;;;;7.85;73.82;101514.00;4916923;29;20466;-85
2024/03/10 00:25:57;;;;;;;0.20;0.20;;;;;;;7.86;73.32;101515.69;4916890;29;20035;-85
2024/03/10 00:28:22;;;;;;;0.20;0.20;;;;;;;7.75;73.82;101501.31;4916697;29;20031;-84
2024/03/10 00:30:48;;;;;;;0.20;0.20;;;;;;;7.79;73.84;101501.28;4916805;29;20036;-85
2024/03/10 00:33:17;;;;;;;0.20;0.20;;;;;;;7.76;73.72;101507.31;4933760;29;20043;-86
2024/03/10 00:35:43;;;;;;;0.20;0.20;;;;;;;7.73;73.74;101507.41;4916726;29;20068;-85
2024/03/10 00:38:09;;;;;;;0.20;0.20;;;;;;;7.69;74.35;101496.34;4932583;29;20031;-85
2024/03/10 00:40:35;;;;;;;0.20;0.20;;;;;;;7.68;74.25;101494.66;4933420;29;20158;-86
2024/03/10 00:43:00;;;;;;;0.20;0.20;;;;;;;7.73;74.09;101510.81;4933428;29;20486;-85
2024/03/10 00:45:26;;;;;;;0.20;0.20;;;;;;;7.68;73.96;101499.81;4916399;29;20067;-85
2024/03/10 00:47:54;;;;;;;0.20;0.20;;;;;;;7.73;74.05;101503.09;4916698;29;20118;-86
2024/03/10 00:50:20;;;;;;;0.20;0.20;;;;;;;7.64;74.94;101503.31;4916730;29;20514;-86
2024/03/10 00:52:46;;;;;;;0.20;0.20;;;;;;;7.69;74.72;101496.34;4916433;29;20060;-85
2024/03/10 00:55:11;;;;;;;0.20;0.20;;;;;;;7.70;75.19;101486.88;4916610;29;20024;-85
2024/03/10 00:57:38;;;;;;;0.20;0.20;;;;;;;7.74;75.41;101473.88;4932056;29;20039;-85
2024/03/10 01:00:10;;;;;;;0.20;0.20;;;;;;;7.64;74.56;101466.41;4916672;29;20075;-85
2024/03/10 01:02:37;;;;;;;0.20;0.20;;;;;;;7.66;74.78;101459.50;4932299;29;20034;-84
2024/03/10 01:05:04;;;;;;;0.20;0.20;;;;;;;7.73;75.37;101456.75;4916870;29;20458;-85
2024/03/10 01:07:30;;;;;;;0.20;0.20;;;;;;;7.76;75.98;101455.81;4901005;29;20059;-86
2024/03/10 01:09:56;;;;;;;0.20;0.20;;;;;;;7.71;75.38;101453.34;4916085;29;20450;-86
2024/03/10 01:12:22;;;;;;;0.20;0.20;;;;;;;7.73;75.12;101461.88;4900310;29;20058;-85
2024/03/10 01:14:47;;;;;;;0.20;0.20;;;;;;;7.73;76.01;101461.88;4900441;29;20063;-86
2024/03/10 01:17:13;;;;;;;0.20;0.20;;;;;;;7.58;75.57;101431.38;4900674;29;20122;-85
2024/03/10 01:19:39;;;;;;;0.20;0.20;;;;;;;7.71;75.72;101452.50;4916495;29;20541;-85
2024/03/10 01:22:05;;;;;;;0.20;0.20;;;;;;;7.70;75.73;101446.53;4900794;29;20114;-84
2024/03/10 01:24:30;;;;;;;0.20;0.20;;;;;;;7.60;75.23;101439.91;4916258;29;20028;-85
2024/03/10 01:26:58;;;;;;;0.20;0.20;;;;;;;7.68;75.61;101453.44;4915902;29;20050;-84
2024/03/10 01:29:27;;;;;;;0.20;0.20;;;;;;;7.67;74.97;101440.56;4916911;29;20046;-85
2024/03/10 01:31:53;;;;;;;0.20;0.20;;;;;;;7.64;75.81;101443.22;4932036;29;20038;-86
2024/03/10 01:34:21;;;;;;;0.20;0.20;;;;;;;7.67;75.28;101440.56;4947880;29;20406;-85
2024/03/10 01:36:46;;;;;;;0.20;0.20;;;;;;;7.63;75.32;101449.28;4916161;29;20063;-85
2024/03/10 01:39:12;;;;;;;0.20;0.20;;;;;;;7.57;76.18;101449.41;4934497;29;20454;-85
2024/03/10 01:41:38;;;;;;;0.20;0.20;;;;;;;7.55;75.93;101436.56;4935201;29;20028;-85
2024/03/10 01:44:05;;;;;;;0.20;0.20;;;;;;;7.54;76.36;101434.88;4935921;29;20027;-85
2024/03/10 01:46:32;;;;;;;0.20;0.20;;;;;;;7.57;76.19;101439.97;4920111;29;20031;-85
2024/03/10 01:48:57;;;;;;;0.20;0.20;;;;;;;7.59;75.76;101445.94;4919168;29;20111;-85
2024/03/10 01:51:23;;;;;;;0.20;0.20;;;;;;;7.51;75.59;101445.25;4919699;29;20028;-84
2024/03/10 01:53:50;;;;;;;0.20;0.20;;;;;;;7.50;75.57;101453.88;4935420;29;20066;-85
2024/03/10 01:56:15;;;;;;;0.20;0.20;;;;;;;7.31;75.86;101450.00;4919770;29;20032;-85
2024/03/10 01:58:44;;;;;;;0.20;0.20;;;;;;;7.35;76.61;101449.06;4919461;29;20031;-85
2024/03/10 02:01:10;;;;;;;0.20;0.20;;;;;;;7.41;76.00;101451.50;4919696;29;20111;-86
2024/03/10 02:03:35;;;;;;;0.20;0.20;;;;;;;7.24;77.02;101425.28;4919201;29;20028;-85
2024/03/10 02:06:01;;;;;;;0.20;0.20;;;;;;;7.24;76.94;101431.28;4935015;29;20099;-85
2024/03/10 02:08:28;;;;;;;0.20;0.20;;;;;;;7.32;76.92;101437.09;4919601;29;20024;-85
2024/03/10 02:10:54;;;;;;;0.20;0.20;;;;;;;7.11;76.78;101410.13;4919304;29;20032;-85
2024/03/10 02:13:21;;;;;;;0.20;0.20;;;;;;;7.37;76.81;101439.56;4934987;29;20046;-85
2024/03/10 02:16:05;;;;;;;0.20;0.20;;;;;;;7.46;76.36;101442.78;4935085;29;20107;-85
2024/03/10 02:18:32;;;;;;;0.20;0.20;;;;;;;7.48;76.46;101435.03;4918877;29;20031;-85
2024/03/10 02:20:58;;;;;;;0.20;0.20;;;;;;;7.34;76.36;101421.63;4919532;29;20031;-85
2024/03/10 02:23:25;;;;;;;0.20;0.20;;;;;;;7.45;77.09;101435.09;4903355;29;20510;-85
2024/03/10 02:25:52;;;;;;;0.20;0.20;;;;;;;7.47;77.09;101429.03;4934859;29;20040;-85
2024/03/10 02:28:23;;;;;;;0.20;0.20;;;;;;;7.41;76.96;101425.75;4919229;29;20506;-85
2024/03/10 02:30:57;;;;;;;0.20;0.20;;;;;;;7.53;76.61;101442.63;4919462;29;20032;-85
2024/03/10 02:47:12;;;;;;;0.20;0.20;;;;;;;7.30;76.89;101430.31;4921068;29;20034;-85
2024/03/10 02:49:40;;;;;;;0.20;0.20;;;;;;;7.35;76.79;101446.47;4918478;29;20417;-85
2024/03/10 02:52:06;;;;;;;0.20;0.20;;;;;;;7.26;78.09;101431.25;4918755;29;20028;-85
2024/03/10 02:54:32;;;;;;;0.20;0.20;;;;;;;7.22;78.26;101432.19;4933992;29;20494;-85
2024/03/10 02:56:57;;;;;;;0.20;0.20;;;;;;;7.14;78.16;101430.63;4918372;29;20394;-85
2024/03/10 02:59:24;;;;;;;0.20;0.20;;;;;;;7.19;78.40;101440.84;4934082;29;20999;-85
2024/03/10 03:01:50;;;;;;;0.20;0.20;;;;;;;7.24;78.95;101446.72;4918639;29;20027;-85
2024/03/10 03:04:16;;;;;;;0.30;0.30;;;;;;;7.28;79.01;101444.94;4918531;29;20032;-85
2024/03/10 03:06:42;;;;;;;0.20;0.20;;;;;;;7.30;79.10;101450.91;4934416;29;20070;-85
2024/03/10 03:09:07;;;;;;;0.20;0.20;;;;;;;7.33;79.08;101454.25;4902270;29;20063;-86
2024/03/10 03:11:33;;;;;;;0.20;0.20;;;;;;;7.45;79.04;101455.69;4934132;29;20032;-85
2024/03/10 03:14:01;;;;;;;0.20;0.20;;;;;;;7.34;78.76;101448.22;4935117;29;20127;-85
2024/03/10 03:16:28;;;;;;;0.20;0.20;;;;;;;7.31;79.11;101448.28;4933803;29;20023;-85
2024/03/10 03:18:54;;;;;;;0.20;0.20;;;;;;;7.36;79.37;101455.88;4918623;29;20038;-85
2024/03/10 03:21:20;;;;;;;0.20;0.20;;;;;;;7.14;78.65;101429.78;4918131;29;20036;-85
2024/03/10 03:23:45;;;;;;;0.20;0.20;;;;;;;7.08;79.56;101435.94;4934515;29;20522;-85
2024/03/10 03:26:14;;;;;;;0.20;0.20;;;;;;;7.08;79.01;101437.63;4918435;29;20039;-86
2024/03/10 03:28:40;;;;;;;0.20;0.20;;;;;;;6.97;78.95;101424.16;4933458;29;20032;-85
2024/03/10 03:31:05;;;;;;;0.20;0.20;;;;;;;7.14;79.02;101430.63;4933779;29;20066;-85
2024/03/10 03:33:31;;;;;;;0.20;0.20;;;;;;;7.19;78.51;101444.25;4917866;29;20067;-84
2024/03/10 03:35:58;;;;;;;0.20;0.20;;;;;;;7.14;78.23;101443.50;4917813;29;20024;-85
2024/03/10 03:38:24;;;;;;;0.20;0.20;;;;;;;7.10;79.28;101444.47;4917737;29;20034;-85
2024/03/10 03:40:50;;;;;;;0.20;0.20;;;;;;;7.05;78.90;101435.97;4901893;29;20040;-86
2024/03/10 03:43:15;;;;;;;0.20;0.20;;;;;;;7.04;79.66;101442.00;4933541;29;20039;-85
2024/03/10 03:45:41;;;;;;;0.20;0.20;;;;;;;7.08;79.59;101441.06;4901617;29;20038;-86
2024/03/10 03:48:08;;;;;;;0.20;0.20;;;;;;;7.16;78.93;101438.31;4917440;29;20028;-86
2024/03/10 03:50:33;;;;;;;0.20;0.20;;;;;;;7.03;78.82;101417.16;4901564;29;20480;-85
2024/03/10 03:53:00;;;;;;;0.20;0.20;;;;;;;7.04;79.52;101429.13;4917456;29;20074;-86
2024/03/10 03:55:27;;;;;;;0.20;0.20;;;;;;;7.11;80.24;101443.56;4917791;29;20091;-86
2024/03/10 03:57:52;;;;;;;0.20;0.20;;;;;;;6.88;80.14;101427.75;4917520;29;20490;-87
2024/03/10 04:00:18;;;;;;;0.20;0.20;;;;;;;6.84;79.80;101432.13;4917130;29;20039;-85
2024/03/10 04:02:46;;;;;;;0.20;0.20;;;;;;;6.90;80.09;101444.88;4916701;29;20034;-85
2024/03/10 04:05:13;;;;;;;0.20;0.20;;;;;;;7.09;80.14;101450.50;4901876;29;20032;-85
2024/03/10 04:07:38;;;;;;;0.20;0.20;;;;;;;7.00;80.09;101452.41;4917624;29;20072;-85
2024/03/10 04:10:06;;;;;;;0.20;0.20;;;;;;;6.97;80.42;101452.44;4917176;29;20122;-85
2024/03/10 04:12:31;;;;;;;0.20;0.20;;;;;;;6.90;80.55;101451.75;4901653;29;20028;-87
2024/03/10 04:14:57;;;;;;;0.20;0.20;;;;;;;7.02;80.33;101459.19;4916945;29;20047;-85
2024/03/10 04:17:22;;;;;;;0.20;0.20;;;;;;;7.05;80.53;101461.69;4917093;29;20039;-86
2024/03/10 04:19:48;;;;;;;0.20;0.20;;;;;;;7.02;80.26;101441.19;4916796;29;20027;-87
2024/03/10 04:22:14;;;;;;;0.20;0.20;;;;;;;7.12;80.03;101463.28;4917084;29;20044;-85
2024/03/10 04:24:39;;;;;;;0.20;0.20;;;;;;;6.98;80.13;101455.00;4933881;29;20032;-86
2024/03/10 04:27:08;;;;;;;0.20;0.20;;;;;;;7.03;80.95;101468.63;4916704;29;20520;-85
2024/03/10 04:29:34;;;;;;;0.20;0.20;;;;;;;7.02;80.84;101460.94;4917071;29;20466;-86
2024/03/10 04:32:00;;;;;;;0.20;0.20;;;;;;;6.97;80.24;101448.16;4901233;29;20059;-86
2024/03/10 04:34:26;;;;;;;0.20;0.20;;;;;;;7.03;81.03;101467.78;4931984;29;20118;-85
2024/03/10 04:36:51;;;;;;;0.20;0.20;;;;;;;7.07;80.72;101469.38;4916499;29;20060;-85
2024/03/10 04:39:18;;;;;;;0.20;0.20;;;;;;;7.05;80.63;101466.84;4916703;29;20035;-86
2024/03/10 04:41:45;;;;;;;0.20;0.20;;;;;;;7.05;80.93;101468.56;4932564;29;20036;-85
2024/03/10 04:44:11;;;;;;;0.20;0.20;;;;;;;7.05;80.29;101477.13;4932536;29;20114;-85
2024/03/10 04:46:39;;;;;;;0.20;0.20;;;;;;;6.97;80.84;101461.00;4916359;29;20099;-86
2024/03/10 04:49:04;;;;;;;0.20;0.20;;;;;;;7.10;80.44;101477.06;4916407;29;20055;-86
2024/03/10 04:51:30;;;;;;;0.20;0.20;;;;;;;7.05;80.04;101476.28;4932456;29;20031;-87
2024/03/10 04:53:56;;;;;;;0.20;0.20;;;;;;;7.03;80.10;101468.63;4900761;29;20122;-86
2024/03/10 04:56:22;;;;;;;0.20;0.20;;;;;;;6.96;80.69;101467.03;4932446;29;20409;-86
2024/03/10 04:58:49;;;;;;;0.20;0.20;;;;;;;7.02;81.21;101486.66;4916636;29;20402;-85
2024/03/10 05:01:16;;;;;;;0.20;0.20;;;;;;;7.06;80.20;101481.41;4916556;29;20035;-86
2024/03/10 05:03:41;;;;;;;0.20;0.20;;;;;;;7.08;80.37;101487.38;4932069;29;20023;-86
2024/03/10 05:06:09;;;;;;;0.20;0.20;;;;;;;7.04;80.15;101488.31;4900688;29;20118;-86
2024/03/10 05:08:35;;;;;;;0.20;0.20;;;;;;;7.02;80.48;101479.78;4901363;29;21140;-86
2024/03/10 05:11:03;;;;;;;0.20;0.20;;;;;;;7.08;80.31;101492.53;4931914;29;20070;-86
2024/03/10 05:13:29;;;;;;;0.20;0.20;;;;;;;7.03;80.68;101494.34;4902631;29;20131;-85
2024/03/10 05:15:55;;;;;;;0.20;0.20;;;;;;;6.98;80.37;101491.03;4920484;29;20038;-86
2024/03/10 05:18:20;;;;;;;0.20;0.20;;;;;;;7.04;80.47;101497.75;4920133;29;20031;-86
2024/03/10 05:20:46;;;;;;;0.30;0.30;;;;;;;7.06;80.30;101494.28;4919968;29;20036;-86
2024/03/10 05:23:12;;;;;;;0.20;0.20;;;;;;;7.02;80.18;101484.94;4904542;29;20506;-86
2024/03/10 05:25:39;;;;;;;0.20;0.20;;;;;;;7.09;80.65;101489.09;4904519;29;20450;-85
2024/03/10 05:28:05;;;;;;;0.20;0.20;;;;;;;7.13;79.46;101480.41;4920364;29;20031;-86
2024/03/10 05:30:31;;;;;;;0.20;0.20;;;;;;;7.12;79.60;101481.28;4937161;29;20031;-86
2024/03/10 05:32:56;;;;;;;0.20;0.20;;;;;;;7.21;80.35;101492.28;4919708;29;20055;-85
2024/03/10 05:35:22;;;;;;;0.20;0.20;;;;;;;7.28;80.23;101486.13;4904526;29;20072;-86
2024/03/10 05:37:47;;;;;;;0.20;0.20;;;;;;;7.23;80.56;101482.78;4919844;29;20036;-86
2024/03/10 05:40:13;;;;;;;0.20;0.20;;;;;;;7.19;80.41;101479.44;4904162;29;20028;-86
2024/03/10 05:42:38;;;;;;;0.20;0.20;;;;;;;7.32;80.05;101495.47;4919739;29;20032;-86
2024/03/10 05:45:06;;;;;;;0.20;0.20;;;;;;;7.39;80.15;101492.72;4919723;29;20072;-86
2024/03/10 05:47:31;;;;;;;0.20;0.20;;;;;;;7.38;79.29;101492.75;4935376;29;20038;-86
2024/03/10 05:49:57;;;;;;;0.20;0.20;;;;;;;7.33;79.61;101484.28;4919593;29;20358;-86
2024/03/10 05:52:24;;;;;;;0.20;0.20;;;;;;;7.49;79.50;101490.78;4919433;29;20562;-85
2024/03/10 05:54:50;;;;;;;0.20;0.20;;;;;;;7.46;79.28;101472.81;4919712;29;20410;-85
2024/03/10 05:57:16;;;;;;;0.20;0.20;;;;;;;7.59;79.37;101479.41;4919722;29;20486;-86
2024/03/10 05:59:44;;;;;;;0.20;0.20;;;;;;;7.51;80.10;101478.72;4935680;29;20046;-86
2024/03/10 06:02:13;;;;;;;0.30;0.30;;;;;;;7.61;78.53;101490.50;4919576;29;20020;-86
2024/03/10 06:04:39;;;;;;;0.20;0.20;;;;;;;7.57;78.49;101491.47;4919787;29;20476;-86
2024/03/10 06:07:06;;;;;;;0.25;0.25;;;;;;;7.59;78.25;101497.44;4903735;29;20027;-86
2024/03/10 06:09:34;;;;;;;0.20;0.20;;;;;;;7.64;79.31;101500.72;4919586;29;20032;-86
2024/03/10 06:12:03;;;;;;;0.20;0.20;;;;;;;7.57;78.84;101481.19;4919731;29;20027;-85
2024/03/10 06:14:31;;;;;;;0.20;0.20;;;;;;;7.75;79.06;101503.06;4919193;29;20042;-86
2024/03/10 06:16:57;;;;;;;0.20;0.20;;;;;;;7.66;78.48;101506.69;4903863;29;20078;-85
2024/03/10 06:27:35;;;;;;;0.20;0.20;;;;;;;7.72;79.23;101501.41;4921423;29;20087;-86
2024/03/10 06:30:00;;;;;;;0.20;0.20;;;;;;;7.78;78.44;101494.44;4919034;29;20031;-86
2024/03/10 06:32:26;;;;;;;0.20;0.20;;;;;;;7.84;79.17;101496.84;4918472;29;20070;-85
2024/03/10 06:34:52;;;;;;;0.20;0.20;;;;;;;7.84;79.40;101497.69;4918521;29;20028;-86
2024/03/10 06:37:19;;;;;;;0.20;0.20;;;;;;;7.93;79.19;101499.22;4918716;29;20032;-86
2024/03/10 06:39:45;;;;;;;0.30;0.30;;;;;;;8.02;78.27;101506.72;4903589;29;20087;-86
2024/03/10 06:42:11;;;;;;;0.20;0.20;;;;;;;7.99;78.35;101493.91;4903161;29;20039;-86
2024/03/10 06:44:37;;;;;;;0.20;0.20;;;;;;;8.23;78.74;101524.22;4918044;29;20032;-86
2024/03/10 06:47:03;;;;;;;0.20;0.20;;;;;;;8.12;78.53;101495.31;4918576;29;20409;-85
2024/03/10 06:49:29;;;;;;;0.20;0.20;;;;;;;8.27;77.31;101525.88;4918564;29;20059;-87
2024/03/10 06:51:55;;;;;;;0.20;0.20;;;;;;;8.24;77.67;101518.19;4918610;29;20031;-86
2024/03/10 06:54:20;;;;;;;0.22;0.22;;;;;;;7.96;76.99;101494.84;4934445;29;20059;-86
2024/03/10 06:56:46;;;;;;;0.20;0.20;;;;;;;8.13;77.90;101511.59;4934267;29;20127;-85
2024/03/10 06:59:13;;;;;;;0.20;0.20;;;;;;;8.17;78.49;101520.97;4902517;29;20425;-86
2024/03/10 07:01:44;;;;;;;0.20;0.20;;;;;;;8.11;78.18;101518.53;4935223;29;20020;-85
2024/03/10 07:04:11;;;;;;;0.20;0.20;;;;;;;8.32;78.15;101539.47;4918572;29;20039;-86
2024/03/10 07:06:37;;;;;;;0.20;0.20;;;;;;;8.38;77.76;101532.50;4918310;29;20028;-86
2024/03/10 07:09:08;;;;;;;0.20;0.20;;;;;;;8.32;77.18;101528.31;4918452;29;20087;-86
2024/03/10 07:11:39;;;;;;;0.20;0.20;;;;;;;8.38;77.21;101535.09;4933898;29;20157;-86
2024/03/10 07:14:04;;;;;;;0.20;0.20;;;;;;;8.32;77.61;101525.72;4902865;29;20391;-85
2024/03/10 07:16:31;;;;;;;0.20;0.20;;;;;;;8.37;77.46;101523.09;4918013;29;20039;-85
2024/03/10 07:18:57;;;;;;;0.20;0.20;;;;;;;8.51;76.77;101523.56;4918303;29;20031;-85
2024/03/10 07:21:22;;;;;;;0.20;0.20;;;;;;;8.62;76.36;101529.28;4918082;29;20062;-86
2024/03/10 07:23:48;;;;;;;0.20;0.20;;;;;;;8.71;76.98;101530.78;4918087;29;20028;-85
2024/03/10 07:26:13;;;;;;;0.20;0.20;;;;;;;8.78;75.33;101543.47;4918030;29;20035;-86
2024/03/10 07:28:39;;;;;;;0.20;0.20;;;;;;;8.81;73.11;101527.91;4933127;29;20034;-86
2024/03/10 07:31:04;;;;;;;0.20;0.20;;;;;;;8.93;72.83;101537.03;4933764;29;20034;-86
2024/03/10 07:33:33;;;;;;;0.20;0.20;;;;;;;8.98;72.77;101536.94;4917601;29;20039;-86
2024/03/10 07:35:59;;;;;;;0.20;0.20;;;;;;;8.94;72.22;101527.56;4917482;29;20506;-85
2024/03/10 07:38:25;;;;;;;0.20;0.20;;;;;;;9.07;70.22;101524.63;4917810;29;20039;-85
2024/03/10 07:40:51;;;;;;;0.20;0.20;;;;;;;9.17;68.94;101535.53;4933466;29;20483;-86
2024/03/10 07:43:17;;;;;;;0.20;0.20;;;;;;;9.18;68.69;101537.22;4933147;29;20027;-85
2024/03/10 07:45:44;;;;;;;0.20;0.20;;;;;;;9.22;69.23;101527.63;4933745;29;20553;-86
2024/03/10 07:48:10;;;;;;;0.20;0.20;;;;;;;9.26;68.73;101534.41;4917690;29;20028;-85
2024/03/10 07:50:36;;;;;;;0.20;0.20;;;;;;;9.29;70.40;101527.41;4917629;29;20034;-86
2024/03/10 07:53:01;;;;;;;0.20;0.20;;;;;;;9.30;70.35;101531.69;4901621;29;20036;-86
2024/03/10 07:55:30;;;;;;;0.20;0.20;;;;;;;9.24;70.04;101520.69;4917415;29;20034;-86
2024/03/10 07:57:59;;;;;;;0.20;0.20;;;;;;;9.41;67.97;101519.31;4902197;29;20036;-86
2024/03/10 08:00:26;;;;;;;0.20;0.20;;;;;;;9.37;68.06;101520.28;4917372;29;20058;-86
2024/03/10 08:02:54;;;;;;;0.20;0.20;;;;;;;9.44;67.12;101514.06;4917396;29;21205;-86
2024/03/10 08:05:20;;;;;;;0.20;0.20;;;;;;;9.41;66.90;101524.47;4949280;29;20513;-86
2024/03/10 08:07:48;;;;;;;0.25;0.25;;;;;;;9.44;68.20;101519.22;4917329;29;20494;-85
2024/03/10 08:10:14;;;;;;;0.20;0.20;;;;;;;9.49;68.34;101519.91;4917660;29;20032;-85
2024/03/10 08:12:39;;;;;;;0.20;0.20;;;;;;;9.56;68.69;101518.00;4916458;29;20035;-86
2024/03/10 08:15:06;;;;;;;0.20;0.20;;;;;;;9.47;68.18;101519.13;4917076;29;20101;-85
2024/03/10 08:17:32;;;;;;;0.20;0.20;;;;;;;9.63;67.19;101523.81;4932942;29;20055;-85
2024/03/10 08:19:58;;;;;;;0.20;0.20;;;;;;;9.68;66.22;101527.13;4917112;29;20027;-86
2024/03/10 08:22:25;;;;;;;0.20;0.20;;;;;;;9.59;66.44;101501.56;4901358;29;20127;-86
2024/03/10 08:24:51;;;;;;;0.20;0.20;;;;;;;9.64;67.70;101516.03;4932921;29;20585;-86
2024/03/10 08:27:17;;;;;;;0.20;0.20;;;;;;;9.61;67.33;101529.03;4916643;29;20088;-86
2024/03/10 08:29:42;;;;;;;0.22;0.22;;;;;;;9.49;67.30;101512.16;4901081;29;20035;-86
2024/03/10 08:32:08;;;;;;;0.20;0.20;;;;;;;9.64;66.59;101515.19;4916800;29;20043;-85
2024/03/10 08:34:33;;;;;;;0.20;0.20;;;;;;;9.68;65.55;101506.44;4916733;29;20043;-86
2024/03/10 08:36:59;;;;;;;0.20;0.20;;;;;;;9.88;65.14;101514.41;4916837;29;20038;-85
2024/03/10 08:39:25;;;;;;;0.20;0.20;;;;;;;9.76;63.61;101499.31;4901011;29;20039;-85
2024/03/10 08:41:51;;;;;;;0.20;0.20;;;;;;;9.89;63.89;101520.44;4932288;29;20036;-85
2024/03/10 08:44:16;;;;;;;0.20;0.20;;;;;;;9.92;63.92;101507.41;4916451;29;20042;-85
2024/03/10 08:46:44;;;;;;;0.20;0.20;;;;;;;10.09;63.66;101519.78;4900757;29;20115;-85
2024/03/10 08:49:11;;;;;;;0.25;0.25;;;;;;;10.21;63.00;101521.97;4900943;29;20056;-86
2024/03/10 08:51:37;;;;;;;0.30;0.30;;;;;;;10.27;62.32;101524.38;4916586;29;20442;-85
2024/03/10 08:54:07;;;;;;;0.20;0.20;;;;;;;10.25;62.39;101513.25;4932378;29;20498;-85
2024/03/10 08:56:36;;;;;;;0.20;0.20;;;;;;;10.34;62.01;101511.22;4916941;29;20033;-85
2024/03/10 08:59:01;;;;;;;0.20;0.20;;;;;;;10.49;62.40;101521.91;4932312;29;20417;-86
2024/03/10 09:01:27;;;;;;;0.20;0.20;;;;;;;10.41;59.14;101517.00;4916576;29;20038;-86
2024/03/10 09:03:55;;;;;;;0.30;0.30;;;;;;;10.54;58.28;101509.69;4932339;29;20110;-86
2024/03/10 09:06:24;;;;;;;0.20;0.20;;;;;;;10.67;58.28;101515.25;4932354;29;20024;-85
2024/03/10 09:08:50;;;;;;;0.20;0.20;;;;;;;10.51;59.11;101495.09;4947423;29;20083;-86
2024/03/10 09:11:15;;;;;;;0.20;0.20;;;;;;;10.51;60.37;101496.81;4916205;29;20027;-85
2024/03/10 09:13:41;;;;;;;0.20;0.20;;;;;;;10.83;60.48;101513.84;4900539;29;20078;-85
2024/03/10 09:16:09;;;;;;;0.20;0.20;;;;;;;10.84;60.02;101510.34;4916626;29;20040;-86
2024/03/10 09:18:35;;;;;;;0.20;0.20;;;;;;;10.81;60.60;101498.34;4917062;29;20035;-86
2024/03/10 09:21:01;;;;;;;0.20;0.20;;;;;;;10.95;60.03;101479.72;4916150;29;20020;-85
2024/03/10 09:23:27;;;;;;;0.20;0.20;;;;;;;11.06;59.94;101456.03;4900662;29;20032;-85
2024/03/10 09:25:54;;;;;;;0.20;0.20;;;;;;;11.05;58.68;101481.06;4931523;29;20027;-85
2024/03/10 09:28:20;;;;;;;0.20;0.20;;;;;;;11.07;59.21;101484.44;4931849;29;20395;-86
2024/03/10 09:30:49;;;;;;;0.20;0.20;;;;;;;11.10;59.79;101442.03;4916143;29;20078;-86
2024/03/10 09:33:17;;;;;;;0.20;0.20;;;;;;;11.31;60.17;101479.25;4932000;29;20119;-86
2024/03/10 09:35:43;;;;;;;0.20;0.20;;;;;;;11.28;59.84;101450.88;4916404;29;20574;-85
2024/03/10 09:38:10;;;;;;;0.20;0.20;;;;;;;11.46;58.84;101460.50;4900512;29;20106;-86
2024/03/10 09:40:35;;;;;;;0.20;0.20;;;;;;;11.50;61.04;101441.34;4900369;29;20039;-85
2024/03/10 09:43:05;;;;;;;0.20;0.20;;;;;;;11.52;59.52;101436.97;4900618;29;20028;-86
2024/03/10 09:45:38;;;;;;;0.20;0.20;;;;;;;11.56;58.83;101446.28;4916380;29;20111;-86
2024/03/10 09:48:09;;;;;;;0.20;0.20;;;;;;;11.67;59.62;101461.41;4901080;29;20032;-84
2024/03/10 09:50:41;;;;;;;0.20;0.20;;;;;;;11.65;59.58;101463.22;4917041;29;20036;-89
2024/03/10 09:53:08;;;;;;;0.20;0.20;;;;;;;11.62;59.17;101459.00;4916333;29;20039;-88
2024/03/10 09:55:34;;;;;;;0.20;0.20;;;;;;;11.85;59.15;101459.84;4916243;29;20126;-88
2024/03/10 09:58:05;;;;;;;0.20;0.20;;;;;;;12.02;58.20;101462.59;4916320;29;20087;-89
2024/03/10 10:00:31;;;;;;;0.20;0.20;;;;;;;12.24;58.22;101460.78;4903856;29;20478;-88
2024/03/10 10:03:02;;;;;;;0.20;0.20;;;;;;;12.34;58.55;101441.31;4903798;29;20038;-88
2024/03/10 10:05:32;;;;;;;0.20;0.20;;;;;;;12.72;57.73;101445.75;4935417;29;20087;-87
2024/03/10 10:08:01;;;;;;;0.20;0.20;;;;;;;12.54;56.42;101437.84;4934853;29;20414;-89
2024/03/10 10:10:26;;;;;;;0.20;0.20;;;;;;;12.67;57.76;101447.69;4919310;29;20031;-87
2024/03/10 10:12:53;;;;;;;0.20;0.20;;;;;;;12.66;58.75;101448.59;4935149;29;20054;-88
2024/03/10 10:15:22;;;;;;;0.20;0.20;;;;;;;12.66;57.21;101452.03;4903795;29;20421;-89
2024/03/10 10:17:58;;;;;;;0.20;0.20;;;;;;;12.59;57.98;101442.84;4935205;29;20039;-88
2024/03/10 10:20:28;;;;;;;0.20;0.20;;;;;;;12.63;57.12;101449.59;4903698;29;20023;-89
2024/03/10 10:22:55;;;;;;;0.20;0.20;;;;;;;12.77;58.06;101446.38;4904051;29;20035;-88
2024/03/10 10:25:22;;;;;;;0.20;0.20;;;;;;;12.90;57.44;101448.34;4903432;29;20031;-88
2024/03/10 10:27:51;;;;;;;0.20;0.20;;;;;;;12.86;56.90;101423.41;4903779;29;20474;-88
2024/03/10 10:30:22;;;;;;;0.20;0.20;;;;;;;12.97;57.01;101440.25;4935008;29;20024;-88
2024/03/10 10:33:08;;;;;;;0.20;0.20;;;;;;;13.06;56.77;101426.84;4919415;29;20020;-88
2024/03/10 10:35:38;;;;;;;0.20;0.20;;;;;;;13.11;56.45;101433.53;4920922;29;20031;-88
2024/03/10 10:38:11;;;;;;;0.20;0.20;;;;;;;13.11;56.54;101401.53;4934272;29;20398;-88
2024/03/10 10:40:40;;;;;;;;;;;;;;;13.23;56.38;101420.91;4920288;29;20106;-88
2024/03/10 10:43:12;;;;;;;0.20;0.20;;;;;;;12.97;58.35;101396.13;4935045;29;19914;-89
2024/03/10 10:45:38;;;;;;;0.20;0.20;;;;;;;13.18;57.22;101410.72;4904654;29;20065;-89
2024/03/10 10:48:06;;;;;;;0.20;0.20;;;;;;;13.32;56.59;101400.53;4934923;29;20044;-89
2024/03/10 10:50:33;;;;;;;0.20;0.20;;;;;;;13.09;55.41;101377.38;4903163;29;20506;-89
2024/03/10 10:52:59;;;;;;;0.20;0.20;;;;;;;13.15;53.95;101403.88;4933984;29;20031;-88
2024/03/10 10:55:27;;;;;;;0.20;0.20;;;;;;;12.96;54.68;101365.88;4918669;29;20027;-89
2024/03/10 10:57:59;;;;;;;0.20;0.20;;;;;;;13.21;54.25;101389.81;4934279;29;20027;-89
2024/03/10 11:00:27;;;;;;;0.20;0.20;;;;;;;13.30;54.75;101384.19;4935255;29;20091;-88
2024/03/10 11:03:05;;;;;;;0.20;0.20;;;;;;;13.50;53.61;101383.22;4918692;29;20087;-88
2024/03/10 11:05:31;;;;;;;0.20;0.20;;;;;;;13.60;53.47;101384.44;4934177;29;20123;-88
2024/03/10 11:07:56;;;;;;;0.20;0.20;;;;;;;13.63;53.08;101378.22;4918252;29;20485;-88
2024/03/10 11:10:43;;;;;;;0.20;0.20;;;;;;;13.71;53.32;101384.75;4917589;29;20091;-88
2024/03/10 11:13:12;;;;;;;0.20;0.20;;;;;;;13.73;53.65;101379.47;4935411;29;20159;-89
2024/03/10 11:15:38;;;;;;;0.20;0.20;;;;;;;13.71;53.42;101370.91;4933818;29;20101;-89
2024/03/10 11:18:20;;;;;;;0.20;0.20;;;;;;;13.83;54.17;101364.22;4918349;29;20055;-88
2024/03/10 11:20:46;;;;;;;0.20;0.20;;;;;;;13.88;53.10;101360.50;4934999;29;20067;-88
2024/03/10 11:23:11;;;;;;;0.20;0.20;;;;;;;13.95;52.89;101354.03;4933898;29;20490;-89
2024/03/10 11:25:37;;;;;;;0.20;0.20;;;;;;;14.05;53.72;101344.00;4917886;29;20036;-88
2024/03/10 11:28:04;;;;;;;0.20;0.20;;;;;;;14.09;52.59;101339.50;4918039;29;20040;-89
2024/03/10 11:30:41;;;;;;;0.20;0.20;;;;;;;14.16;53.27;101361.66;4934328;29;20490;-88
2024/03/10 11:33:07;;;;;;;0.20;0.20;;;;;;;14.22;52.95;101350.94;4933754;29;20474;-88
2024/03/10 11:35:36;;;;;;;0.20;0.20;;;;;;;14.23;52.69;101337.00;4901613;29;20031;-89
2024/03/10 11:38:04;;;;;;;0.20;0.20;;;;;;;14.22;53.01;101330.94;4917871;29;20048;-88
2024/03/10 11:40:30;;;;;;;0.20;0.20;;;;;;;14.33;52.68;101348.59;4933353;29;20491;-88
2024/03/10 11:43:01;;;;;;;0.20;0.20;;;;;;;14.36;52.77;101327.63;4918048;29;20552;-89
2024/03/10 11:45:26;;;;;;;0.20;0.20;;;;;;;14.41;51.96;101336.03;4902590;29;20510;-89
2024/03/10 11:47:54;;;;;;;0.20;0.20;;;;;;;14.46;52.90;101333.22;4933128;29;20038;-89
2024/03/10 11:50:20;;;;;;;0.30;0.30;;;;;;;14.26;54.19;101342.06;4917276;29;20079;-88
2024/03/10 11:52:45;;;;;;;0.20;0.20;;;;;;;14.20;53.76;101316.34;4933269;29;20110;-88